Time;durP1;ratioP1;P1;durP2;ratioP2;P2;SDS_P1;SDS_P2;PMS_P1;PMS_P2;Temp;Humidity;BMP_temperature;BMP_pressure;BME280_temperature;BME280_humidity;BME280_pressure;Samples;Min_cycle;Max_cycle;Signal;HPM_P1;HPM_P2
2022/06/08 00:01:20;;;;;;;11.90;9.82;;;;;;;17.59;75.85;99626.91;5070559;28;20039;-32
2022/06/08 00:03:54;;;;;;;11.45;9.15;;;;;;;17.47;75.39;99616.47;5070614;28;20034;-27
2022/06/08 00:06:20;;;;;;;11.10;9.65;;;;;;;17.32;77.08;99617.31;5070678;28;20028;-32
2022/06/08 00:08:47;;;;;;;13.38;9.88;;;;;;;17.39;76.52;99611.66;5088446;28;20416;-30
2022/06/08 00:11:13;;;;;;;12.18;9.50;;;;;;;17.23;76.78;99603.59;5088448;28;20031;-30
2022/06/08 00:13:38;;;;;;;11.30;9.35;;;;;;;16.93;78.43;99588.31;5088881;28;20499;-28
2022/06/08 00:16:05;;;;;;;15.43;9.73;;;;;;;17.21;76.70;99603.06;5088893;28;20113;-29
2022/06/08 00:18:30;;;;;;;12.98;10.23;;;;;;;17.07;76.93;99593.94;5069985;28;20028;-29
2022/06/08 00:20:56;;;;;;;15.27;10.93;;;;;;;16.99;78.72;99589.91;5088602;28;20583;-28
2022/06/08 00:23:22;;;;;;;13.13;10.15;;;;;;;16.81;79.17;99580.50;5070119;28;20093;-28
2022/06/08 00:25:47;;;;;;;13.50;10.95;;;;;;;16.78;79.41;99591.81;5088466;28;20809;-28
2022/06/08 00:28:13;;;;;;;14.10;10.60;;;;;;;16.69;80.40;99588.03;5088593;28;20101;-29
2022/06/08 00:30:39;;;;;;;11.38;9.57;;;;;;;17.03;79.11;99609.03;5069730;28;20031;-30
2022/06/08 00:33:05;;;;;;;13.68;10.52;;;;;;;17.05;77.67;99585.31;5070116;28;20035;-32
2022/06/08 00:35:31;;;;;;;14.43;10.75;;;;;;;17.07;77.66;99580.47;5088033;28;20024;-28
2022/06/08 00:37:56;;;;;;;12.63;11.07;;;;;;;16.67;79.83;99584.81;5088253;28;20107;-28
2022/06/08 00:40:30;;;;;;;11.68;9.60;;;;;;;16.10;82.40;99592.09;5069459;28;20032;-32
2022/06/08 00:42:55;;;;;;;13.20;10.07;;;;;;;16.47;80.24;99580.28;5088227;28;20107;-30
2022/06/08 00:45:23;;;;;;;14.43;11.20;;;;;;;16.78;79.75;99574.84;5088318;28;20164;-31
2022/06/08 00:47:53;;;;;;;;;;;;;;;16.47;80.66;99591.84;5088333;28;20047;-34
2022/06/08 00:50:47;;;;;;;12.73;11.18;;;;;;;16.51;81.31;99592.13;5087947;28;19912;-28
2022/06/08 00:53:16;;;;;;;13.65;11.90;;;;;;;16.56;81.36;99577.84;5079940;28;20048;-28
2022/06/08 00:55:43;;;;;;;12.77;10.98;;;;;;;16.82;80.26;99592.91;5087714;28;20027;-31
2022/06/08 00:58:18;;;;;;;13.45;11.50;;;;;;;16.81;79.92;99599.38;5069580;28;20040;-30
2022/06/08 01:00:45;;;;;;;15.68;11.68;;;;;;;16.61;79.94;99564.34;5087470;28;20472;-31
2022/06/08 01:03:13;;;;;;;15.35;11.48;;;;;;;16.37;81.53;99591.84;5069272;28;20122;-32
2022/06/08 01:05:46;;;;;;;;;;;;;;;15.95;84.30;99600.91;5088395;28;20097;-29
2022/06/08 01:08:28;;;;;;;16.75;10.95;;;;;;;15.73;84.44;99600.31;5069591;28;20002;-29
2022/06/08 01:10:58;;;;;;;12.20;8.30;;;;;;;15.37;83.11;99589.41;5087674;28;20028;-28
2022/06/08 01:13:28;;;;;;;10.70;8.15;;;;;;;15.21;83.59;99594.72;5087684;28;20081;-29
2022/06/08 01:15:53;;;;;;;10.55;8.80;;;;;;;15.39;82.61;99587.28;5087369;28;20027;-28
2022/06/08 01:18:19;;;;;;;11.55;9.13;;;;;;;15.85;81.22;99593.66;5087624;28;20426;-31
2022/06/08 01:20:55;;;;;;;11.52;9.15;;;;;;;16.11;80.22;99592.88;5087325;28;20092;-34
2022/06/08 01:23:23;;;;;;;12.73;9.27;;;;;;;16.39;79.57;99587.00;5087396;28;20035;-28
2022/06/08 01:26:21;;;;;;;10.68;9.38;;;;;;;16.03;81.21;99576.19;5087351;28;20483;-28
2022/06/08 01:29:29;;;;;;;11.73;9.80;;;;;;;16.25;80.73;99589.41;5035450;28;20040;-28
2022/06/08 01:32:11;;;;;;;12.80;9.88;;;;;;;16.09;80.36;99562.75;5087352;28;20115;-30
2022/06/08 01:34:52;;;;;;;12.48;10.57;;;;;;;15.96;82.46;99580.22;5086961;28;20046;-32
2022/06/08 01:37:45;;;;;;;12.20;9.50;;;;;;;16.03;81.40;99581.56;5087337;28;20562;-28
2022/06/08 01:40:38;;;;;;;11.65;9.50;;;;;;;15.56;84.40;99585.19;5087414;28;20027;-28
2022/06/08 01:43:26;;;;;;;11.90;8.18;;;;;;;15.55;84.13;99585.44;5087432;28;20573;-28
2022/06/08 01:46:09;;;;;;;12.48;8.70;;;;;;;15.89;82.03;99580.47;5087201;28;20032;-33
2022/06/08 01:48:37;;;;;;;11.90;8.60;;;;;;;15.40;83.94;99600.44;5068683;28;20036;-28
2022/06/08 01:51:19;;;;;;;9.57;7.50;;;;;;;15.19;84.21;99599.53;5086997;28;20423;-30
2022/06/08 01:54:07;;;;;;;11.85;8.18;;;;;;;15.30;82.69;99603.06;5069066;28;20468;-28
2022/06/08 01:56:51;;;;;;;10.18;7.40;;;;;;;15.41;81.65;99599.38;5086726;28;20028;-30
2022/06/08 01:59:16;;;;;;;12.18;8.25;;;;;;;14.82;84.98;99604.94;5087201;28;20034;-28
2022/06/08 02:01:45;;;;;;;12.10;8.55;;;;;;;14.90;83.40;99601.78;5086683;28;20040;-28
2022/06/08 02:04:43;;;;;;;12.35;9.27;;;;;;;14.83;83.45;99579.72;5068527;28;20046;-28
2022/06/08 02:07:33;;;;;;;11.00;8.77;;;;;;;14.93;83.08;99578.97;5087000;28;20115;-29
2022/06/08 02:10:14;;;;;;;11.20;8.77;;;;;;;14.99;83.85;99602.91;5068390;28;20180;-28
2022/06/08 02:12:46;;;;;;;15.75;9.27;;;;;;;15.30;83.47;99607.63;5068520;28;20036;-27
2022/06/08 02:15:26;;;;;;;17.65;10.82;;;;;;;15.46;82.65;99599.38;5068718;28;20028;-29
2022/06/08 02:17:55;;;;;;;15.50;12.18;;;;;;;15.56;82.19;99605.88;5068474;28;20400;-29
2022/06/08 02:20:35;;;;;;;21.38;14.13;;;;;;;15.49;80.76;99603.44;5086656;28;20028;-30
2022/06/08 02:23:43;;;;;;;26.45;20.48;;;;;;;15.43;80.44;99596.44;5068642;28;20097;-28
2022/06/08 02:26:23;;;;;;;31.80;23.08;;;;;;;15.44;80.86;99598.84;5086951;28;20030;-29
2022/06/08 02:29:23;;;;;;;30.15;23.42;;;;;;;15.21;82.64;99597.38;5086463;28;20047;-28
2022/06/08 02:34:59;;;;;;;25.83;20.40;;;;;;;14.85;84.06;99591.81;5086880;28;20046;-32
2022/06/08 02:37:31;;;;;;;23.23;18.40;;;;;;;15.17;82.55;99596.28;5085477;28;20020;-29
2022/06/08 02:40:05;;;;;;;28.63;17.33;;;;;;;15.09;82.48;99588.72;5086754;28;20043;-33
2022/06/08 02:42:38;;;;;;;24.77;16.65;;;;;;;15.01;84.01;99603.44;5086533;28;20511;-31
2022/06/08 02:45:14;;;;;;;20.52;16.08;;;;;;;15.05;82.96;99611.81;5086825;28;20139;-28
2022/06/08 02:47:41;;;;;;;18.02;13.80;;;;;;;15.06;83.27;99616.13;5068380;28;20071;-28
2022/06/08 02:50:11;;;;;;;16.27;11.95;;;;;;;15.08;82.51;99592.50;5086565;28;20040;-30
2022/06/08 02:52:42;;;;;;;16.52;12.48;;;;;;;15.19;81.75;99598.72;5086160;28;20059;-29
2022/06/08 02:55:22;;;;;;;13.90;10.80;;;;;;;15.27;82.46;99611.66;5086961;28;20032;-29
2022/06/08 02:58:03;;;;;;;14.82;11.88;;;;;;;15.13;82.40;99595.19;5086565;28;20039;-28
2022/06/08 03:00:45;;;;;;;13.90;11.55;;;;;;;15.15;82.65;99598.44;5086569;28;20035;-32
2022/06/08 03:03:22;;;;;;;16.33;13.15;;;;;;;15.14;83.28;99623.69;5086722;28;20040;-28
2022/06/08 03:06:15;;;;;;;14.43;11.80;;;;;;;15.23;82.69;99621.31;5086842;28;20028;-28
2022/06/08 03:08:53;;;;;;;17.75;13.35;;;;;;;15.25;81.89;99611.91;5068053;28;20119;-30
2022/06/08 03:11:20;;;;;;;15.73;12.20;;;;;;;15.72;80.41;99628.25;5086677;28;20028;-32
2022/06/08 03:13:52;;;;;;;17.40;11.95;;;;;;;15.61;80.22;99620.16;5068290;28;20035;-28
2022/06/08 03:16:31;;;;;;;14.77;11.98;;;;;;;15.42;80.68;99606.34;5089909;28;20035;-32
2022/06/08 03:18:58;;;;;;;16.30;11.98;;;;;;;15.57;80.35;99604.78;5071423;28;20114;-34
2022/06/08 03:21:25;;;;;;;16.50;12.15;;;;;;;15.98;78.81;99615.72;5088666;28;20032;-28
2022/06/08 03:23:51;;;;;;;15.85;11.95;;;;;;;16.04;78.13;99620.84;5071743;28;20041;-28
2022/06/08 03:26:19;;;;;;;14.88;12.57;;;;;;;15.99;78.88;99623.50;5071775;28;20098;-28
2022/06/08 03:28:44;;;;;;;18.27;11.85;;;;;;;15.54;81.68;99633.00;5089419;28;20483;-31
2022/06/08 03:31:10;;;;;;;13.95;12.15;;;;;;;15.33;82.41;99620.56;5089536;28;20077;-28
2022/06/08 03:33:35;;;;;;;16.75;12.80;;;;;;;15.76;81.65;99629.38;5089942;28;20063;-28
2022/06/08 03:36:01;;;;;;;19.88;13.75;;;;;;;16.24;79.43;99624.63;5089855;28;20115;-30
2022/06/08 03:38:27;;;;;;;21.35;14.45;;;;;;;16.20;78.95;99621.69;5089423;28;20067;-29
2022/06/08 03:40:53;;;;;;;26.75;14.55;;;;;;;16.04;79.67;99617.38;5089603;28;20035;-28
2022/06/08 03:43:19;;;;;;;21.55;16.42;;;;;;;16.14;79.70;99630.84;5089654;28;20035;-32
2022/06/08 03:45:49;;;;;;;23.20;15.75;;;;;;;16.28;78.63;99609.56;5070979;28;20027;-30
2022/06/08 03:48:15;;;;;;;23.08;16.45;;;;;;;16.47;77.60;99629.50;5089667;28;20028;-28
2022/06/08 03:50:42;;;;;;;24.08;16.50;;;;;;;16.05;79.63;99617.06;5089457;28;20063;-30
2022/06/08 03:53:16;;;;;;;23.10;16.60;;;;;;;16.48;78.68;99614.16;5089645;28;20148;-28
2022/06/08 03:55:42;;;;;;;20.88;16.90;;;;;;;16.41;79.49;99622.50;5089714;28;20027;-28
2022/06/08 03:58:07;;;;;;;20.45;15.38;;;;;;;16.47;79.29;99629.50;5089183;28;20399;-28
2022/06/08 04:00:34;;;;;;;23.98;16.27;;;;;;;16.58;78.85;99613.38;5088823;28;20024;-36
2022/06/08 04:03:00;;;;;;;21.48;16.33;;;;;;;16.47;79.59;99626.81;5088159;28;20032;-28
2022/06/08 04:05:26;;;;;;;21.15;16.20;;;;;;;16.44;80.42;99624.66;5089107;28;20052;-29
2022/06/08 04:07:52;;;;;;;20.85;15.88;;;;;;;16.33;80.52;99620.34;5089040;28;20059;-28
2022/06/08 04:10:17;;;;;;;20.15;15.27;;;;;;;16.25;80.77;99615.50;5088916;28;20028;-28
2022/06/08 04:12:43;;;;;;;19.40;14.68;;;;;;;16.32;81.15;99613.34;5088395;28;20139;-30
2022/06/08 04:15:09;;;;;;;18.48;14.13;;;;;;;16.62;80.03;99626.00;5070709;28;20035;-29
2022/06/08 04:17:34;;;;;;;17.75;14.45;;;;;;;16.75;79.75;99631.94;5070501;28;20671;-28
2022/06/08 04:20:00;;;;;;;15.80;12.95;;;;;;;16.72;80.31;99641.38;5089006;28;20024;-30
2022/06/08 04:22:31;;;;;;;15.18;13.38;;;;;;;16.69;81.00;99631.13;5088751;28;20032;-29
2022/06/08 04:25:00;;;;;;;22.25;13.88;;;;;;;16.91;79.99;99633.56;5089097;28;20020;-28
2022/06/08 04:27:26;;;;;;;19.30;13.82;;;;;;;17.12;79.07;99634.34;5088593;28;20038;-30
2022/06/08 04:29:53;;;;;;;16.58;13.05;;;;;;;17.21;78.95;99651.56;5088920;28;20032;-29
2022/06/08 04:32:18;;;;;;;19.55;13.77;;;;;;;17.11;79.66;99653.47;5088740;28;20035;-28
2022/06/08 04:34:44;;;;;;;18.80;13.57;;;;;;;17.04;79.90;99642.97;5088275;28;20117;-33
2022/06/08 04:37:10;;;;;;;15.82;12.65;;;;;;;17.22;79.32;99634.34;5088586;28;20024;-30
2022/06/08 04:39:35;;;;;;;17.60;13.15;;;;;;;17.55;78.92;99636.63;5088565;28;20031;-29
2022/06/08 04:42:01;;;;;;;15.70;14.02;;;;;;;17.66;78.55;99636.31;5088422;28;20036;-28
2022/06/08 04:44:27;;;;;;;15.40;13.27;;;;;;;17.71;79.20;99648.97;5070129;28;20035;-29
2022/06/08 04:46:52;;;;;;;15.07;13.02;;;;;;;17.80;78.87;99638.44;5088836;28;20032;-29
2022/06/08 04:49:18;;;;;;;17.00;14.13;;;;;;;17.83;79.36;99633.31;5088497;28;20074;-31
2022/06/08 04:51:44;;;;;;;17.00;14.38;;;;;;;18.15;77.86;99650.16;5088390;28;20051;-29
2022/06/08 04:54:09;;;;;;;19.13;14.85;;;;;;;18.13;78.40;99639.63;5088053;28;20085;-28
2022/06/08 04:56:35;;;;;;;20.88;16.10;;;;;;;18.09;78.22;99641.28;5087541;28;20038;-28
2022/06/08 04:59:01;;;;;;;19.75;14.93;;;;;;;18.06;79.14;99642.66;5088174;28;20457;-29
2022/06/08 05:01:27;;;;;;;14.93;13.32;;;;;;;18.24;77.27;99645.75;5069880;28;20032;-35
2022/06/08 05:03:53;;;;;;;15.90;14.20;;;;;;;18.19;76.55;99614.22;5087981;28;20085;-28
2022/06/08 05:06:19;;;;;;;16.05;14.15;;;;;;;18.28;75.86;99603.63;5087905;28;20062;-29
2022/06/08 05:08:44;;;;;;;15.43;13.75;;;;;;;18.60;76.43;99632.03;5087619;28;20024;-32
2022/06/08 05:11:10;;;;;;;15.07;12.23;;;;;;;18.64;74.84;99624.97;5087809;28;20411;-29
2022/06/08 05:13:36;;;;;;;15.32;13.65;;;;;;;18.94;75.48;99645.53;5088039;28;20546;-28
2022/06/08 05:16:04;;;;;;;17.60;13.88;;;;;;;19.09;74.88;99651.88;5069612;28;20815;-29
2022/06/08 05:18:30;;;;;;;14.88;13.15;;;;;;;19.20;74.63;99654.16;5087610;28;20035;-28
2022/06/08 05:20:56;;;;;;;22.92;13.20;;;;;;;19.01;75.66;99639.78;5087877;28;20064;-28
2022/06/08 05:23:36;;;;;;;15.10;13.35;;;;;;;19.03;75.08;99667.34;5087821;28;20036;-28
2022/06/08 05:26:03;;;;;;;15.85;12.88;;;;;;;19.21;73.82;99661.22;5088127;28;20035;-29
2022/06/08 05:28:28;;;;;;;13.45;12.05;;;;;;;19.30;74.08;99652.47;5087287;28;20077;-31
2022/06/08 05:30:56;;;;;;;13.57;11.73;;;;;;;19.58;75.10;99658.91;5087763;28;20032;-30
2022/06/08 05:33:26;;;;;;;16.30;13.35;;;;;;;19.62;74.52;99660.75;5087364;28;20028;-32
2022/06/08 05:35:52;;;;;;;12.63;10.80;;;;;;;19.59;70.87;99650.50;5087622;28;20032;-28
2022/06/08 05:38:18;;;;;;;11.98;10.77;;;;;;;19.42;71.44;99655.56;5086904;28;20523;-28
2022/06/08 05:40:44;;;;;;;13.88;10.40;;;;;;;19.53;71.20;99657.06;5087479;28;20107;-31
2022/06/08 05:43:12;;;;;;;13.40;10.23;;;;;;;19.79;70.93;99656.78;5087356;28;20036;-40
2022/06/08 05:45:39;;;;;;;12.93;10.90;;;;;;;19.99;70.02;99653.03;5087254;28;20395;-29
2022/06/08 05:48:05;;;;;;;11.95;10.75;;;;;;;20.09;71.45;99652.09;5087295;28;20034;-28
2022/06/08 05:50:31;;;;;;;13.02;10.70;;;;;;;20.25;70.07;99658.88;5086659;28;20499;-33
2022/06/08 05:52:57;;;;;;;12.38;9.98;;;;;;;20.54;66.77;99649.78;5087012;28;20052;-28
2022/06/08 05:55:23;;;;;;;11.77;10.57;;;;;;;20.26;67.93;99657.78;5087120;28;20621;-29
2022/06/08 05:57:51;;;;;;;12.70;10.65;;;;;;;20.47;66.63;99640.13;5085838;28;20494;-29
2022/06/08 06:00:20;;;;;;;12.82;11.43;;;;;;;20.64;67.06;99647.75;5068784;28;20028;-31
2022/06/08 06:02:46;;;;;;;12.38;9.95;;;;;;;20.65;65.53;99638.50;5085520;28;20115;-33
2022/06/08 06:05:14;;;;;;;11.75;10.50;;;;;;;20.65;66.91;99653.97;5087088;28;20110;-31
2022/06/08 06:07:42;;;;;;;11.65;8.93;;;;;;;20.69;67.42;99659.59;5087252;28;20031;-30
2022/06/08 06:10:09;;;;;;;47.15;34.38;;;;;;;20.97;69.58;99646.94;5087057;28;20863;-33
2022/06/08 06:12:35;;;;;;;18.38;13.75;;;;;;;21.30;65.63;99653.09;5068533;28;20028;-28
2022/06/08 06:15:01;;;;;;;21.35;15.55;;;;;;;21.42;64.96;99633.63;5068538;28;20036;-28
2022/06/08 06:17:28;;;;;;;10.40;8.02;;;;;;;21.82;59.67;99652.91;5086737;28;20028;-32
2022/06/08 06:19:55;;;;;;;8.77;7.65;;;;;;;21.61;63.05;99642.47;5086774;28;20169;-30
2022/06/08 06:22:20;;;;;;;34.55;24.00;;;;;;;21.90;65.13;99635.09;5051840;28;20539;-28
2022/06/08 06:24:45;;;;;;;18.98;14.73;;;;;;;21.99;64.57;99646.84;5086624;28;20084;-30
2022/06/08 06:27:11;;;;;;;13.43;10.38;;;;;;;22.18;61.80;99661.06;5086649;28;20028;-29
2022/06/08 06:29:36;;;;;;;10.90;8.40;;;;;;;21.91;60.29;99651.09;5086692;28;20036;-31
2022/06/08 06:32:05;;;;;;;15.27;11.82;;;;;;;22.29;63.16;99650.81;5086484;28;20027;-29
2022/06/08 06:34:32;;;;;;;10.88;8.30;;;;;;;22.53;61.48;99655.16;5086512;28;20024;-31
2022/06/08 06:36:58;;;;;;;9.63;8.05;;;;;;;22.75;58.60;99659.78;5086781;28;20032;-29
2022/06/08 06:39:28;;;;;;;11.13;8.85;;;;;;;22.70;59.37;99640.88;5086560;28;20092;-28
2022/06/08 06:41:55;;;;;;;10.98;8.90;;;;;;;22.71;59.46;99637.84;5086535;28;20032;-31
2022/06/08 06:44:23;;;;;;;13.37;8.50;;;;;;;22.82;57.86;99641.94;5086582;28;20458;-29
2022/06/08 06:46:49;;;;;;;13.68;8.40;;;;;;;23.04;58.23;99649.25;5086569;28;20041;-28
2022/06/08 06:49:15;;;;;;;10.95;7.70;;;;;;;23.07;58.19;99642.41;5086547;28;20195;-29
2022/06/08 06:51:40;;;;;;;10.60;7.88;;;;;;;23.24;57.73;99645.19;5090374;28;20414;-29
2022/06/08 06:54:10;;;;;;;10.70;7.68;;;;;;;23.35;56.76;99639.47;5090322;28;20452;-31
2022/06/08 06:56:35;;;;;;;8.88;7.65;;;;;;;23.33;55.43;99625.38;5090067;28;20111;-29
2022/06/08 06:59:02;;;;;;;11.43;7.57;;;;;;;23.37;56.39;99642.69;5090051;28;20103;-32
2022/06/08 07:01:29;;;;;;;10.48;8.02;;;;;;;23.04;56.96;99621.25;5090331;28;20027;-29
2022/06/08 07:03:54;;;;;;;9.35;7.25;;;;;;;23.36;58.39;99622.06;5089928;28;20032;-34
2022/06/08 07:06:20;;;;;;;10.23;7.40;;;;;;;23.50;57.26;99630.06;5071978;28;20101;-30
2022/06/08 07:08:45;;;;;;;11.88;8.02;;;;;;;23.39;56.20;99613.25;5089923;28;20527;-30
2022/06/08 07:13:57;;;;;;;10.80;8.13;;;;;;;23.79;55.97;99629.56;5090084;28;20031;-32
2022/06/08 07:16:23;;;;;;;9.63;7.68;;;;;;;23.82;55.42;99627.00;5071016;28;20035;-32
2022/06/08 07:18:48;;;;;;;9.30;8.13;;;;;;;23.46;56.30;99610.88;5089864;28;20111;-29
2022/06/08 07:21:14;;;;;;;10.35;7.53;;;;;;;23.60;55.72;99606.09;5089667;28;20038;-30
2022/06/08 07:23:41;;;;;;;11.13;7.80;;;;;;;23.39;55.68;99605.06;5089652;28;20089;-29
2022/06/08 07:26:06;;;;;;;10.15;8.02;;;;;;;23.71;56.01;99616.69;5071477;28;20043;-28
2022/06/08 07:28:32;;;;;;;9.18;7.88;;;;;;;23.73;55.67;99598.91;5089493;28;20024;-32
2022/06/08 07:30:57;;;;;;;8.48;6.53;;;;;;;24.23;52.72;99623.03;5089615;28;20476;-32
2022/06/08 07:33:23;;;;;;;9.02;6.82;;;;;;;24.37;52.84;99609.19;5090032;28;20059;-31
2022/06/08 07:35:49;;;;;;;10.82;6.40;;;;;;;24.56;50.74;99597.19;5089883;28;20078;-29
2022/06/08 07:38:14;;;;;;;9.05;6.45;;;;;;;24.84;51.40;99612.03;5089546;28;20055;-30
2022/06/08 07:40:40;;;;;;;10.85;7.03;;;;;;;25.15;49.68;99607.44;5089274;28;20044;-28
2022/06/08 07:43:06;;;;;;;8.93;6.60;;;;;;;25.22;49.51;99586.72;5089238;28;20099;-29
2022/06/08 07:45:31;;;;;;;8.82;5.80;;;;;;;25.38;45.27;99597.09;5089353;28;20039;-32
2022/06/08 07:50:42;;;;;;;9.60;6.68;;;;;;;25.33;47.20;99591.81;5088793;28;20046;-30
2022/06/08 07:53:08;;;;;;;8.35;5.60;;;;;;;25.39;47.54;99593.22;5070528;28;20055;-30
2022/06/08 07:55:34;;;;;;;8.27;4.25;;;;;;;24.71;46.94;99615.75;5054360;28;20032;-30
2022/06/08 07:58:00;;;;;;;10.15;6.15;;;;;;;24.74;47.62;99598.75;5088787;28;20032;-28
2022/06/08 08:00:26;;;;;;;9.93;5.57;;;;;;;25.28;47.69;99592.81;5088673;28;20134;-29
2022/06/08 08:02:52;;;;;;;9.38;7.43;;;;;;;25.03;48.65;99616.31;5088800;28;20042;-29
2022/06/08 08:05:19;;;;;;;10.15;7.18;;;;;;;25.36;48.48;99610.28;5088926;28;20036;-31
2022/06/08 08:07:45;;;;;;;10.23;6.43;;;;;;;25.30;49.36;99619.78;5070664;28;20063;-29
2022/06/08 08:10:18;;;;;;;8.80;6.85;;;;;;;25.22;48.21;99619.47;5088746;28;20479;-35
2022/06/08 08:12:44;;;;;;;8.38;6.55;;;;;;;25.32;49.98;99622.97;5070591;28;20031;-29
2022/06/08 08:15:10;;;;;;;8.07;6.55;;;;;;;25.49;47.36;99617.41;5088958;28;20020;-28
2022/06/08 08:17:35;;;;;;;8.82;6.10;;;;;;;25.55;47.78;99599.72;5089016;28;20085;-29
2022/06/08 08:20:01;;;;;;;7.90;5.60;;;;;;;25.73;47.04;99610.53;5088793;28;20036;-34
2022/06/08 08:22:26;;;;;;;12.73;6.40;;;;;;;25.83;47.05;99612.88;5088814;28;20109;-29
2022/06/08 08:24:52;;;;;;;7.65;6.18;;;;;;;25.74;46.25;99595.72;5088429;28;20114;-29
2022/06/08 08:27:18;;;;;;;7.70;6.00;;;;;;;25.77;47.55;99598.59;5089043;28;20465;-31
2022/06/08 08:29:43;;;;;;;6.30;4.85;;;;;;;25.94;46.05;99616.81;5088899;28;20052;-30
2022/06/08 08:32:10;;;;;;;6.32;4.88;;;;;;;25.90;44.72;99604.97;5088353;28;20450;-28
2022/06/08 08:34:36;;;;;;;6.50;4.83;;;;;;;26.10;44.81;99591.66;5088151;28;20023;-27
2022/06/08 08:37:03;;;;;;;8.02;4.55;;;;;;;26.33;43.81;99609.28;5069893;28;20262;-31
2022/06/08 08:39:28;;;;;;;7.22;5.03;;;;;;;26.17;43.57;99605.56;5069209;28;20032;-32
2022/06/08 08:44:42;;;;;;;8.23;5.63;;;;;;;26.83;43.28;99602.84;5087989;28;20145;-30
2022/06/08 08:47:24;;;;;;;8.60;5.85;;;;;;;27.09;42.99;99609.16;5069814;28;20519;-31
2022/06/08 08:50:08;;;;;;;12.07;5.05;;;;;;;26.21;45.60;99601.03;5069698;28;20032;-32
2022/06/08 08:52:41;;;;;;;11.10;6.05;;;;;;;26.23;46.47;99621.41;5069483;28;20062;-30
2022/06/08 08:55:39;;;;;;;8.60;4.97;;;;;;;26.81;43.23;99601.59;5069398;28;20028;-38
2022/06/08 08:58:12;;;;;;;6.55;5.20;;;;;;;26.82;46.26;99601.25;5070239;28;20569;-29
2022/06/08 09:00:43;;;;;;;6.63;4.70;;;;;;;26.79;45.47;99609.34;5069611;28;20551;-32
2022/06/08 09:03:35;;;;;;;7.30;5.38;;;;;;;26.77;44.90;99604.22;5088163;28;20173;-29
2022/06/08 09:06:14;;;;;;;7.07;5.25;;;;;;;26.97;44.73;99593.50;5069535;28;20028;-35
2022/06/08 09:08:43;;;;;;;6.50;4.88;;;;;;;26.95;44.28;99598.53;5087224;28;20028;-33
2022/06/08 09:11:39;;;;;;;7.15;4.70;;;;;;;26.82;45.86;99592.25;5069434;28;20028;-29
2022/06/08 09:14:14;;;;;;;6.07;4.80;;;;;;;27.05;44.38;99592.59;5048562;28;20036;-30
2022/06/08 09:16:43;;;;;;;8.20;4.90;;;;;;;27.16;42.71;99582.81;5087553;28;20270;-30
2022/06/08 09:19:21;;;;;;;6.78;4.72;;;;;;;27.75;45.66;99597.97;5069203;28;20028;-29
2022/06/08 09:21:52;;;;;;;9.70;4.93;;;;;;;27.54;43.88;99602.78;5087932;28;20457;-31
2022/06/08 09:24:28;;;;;;;8.38;4.85;;;;;;;27.34;43.34;99601.75;5069234;28;20020;-35
2022/06/08 09:27:26;;;;;;;7.25;4.85;;;;;;;27.07;42.58;99579.38;5069390;28;20587;-30
2022/06/08 09:30:10;;;;;;;6.00;4.45;;;;;;;27.18;43.52;99580.53;5087033;28;20032;-32
2022/06/08 09:32:39;;;;;;;6.38;4.97;;;;;;;27.42;43.61;99592.63;5087251;28;20028;-31
2022/06/08 09:35:35;;;;;;;7.28;5.13;;;;;;;27.79;43.54;99582.44;5069067;28;20081;-30
2022/06/08 09:38:06;;;;;;;7.63;4.78;;;;;;;27.29;42.69;99596.53;5087750;28;20119;-34
2022/06/08 09:40:54;;;;;;;9.95;5.60;;;;;;;27.30;43.89;99578.94;5087395;28;20028;-29
2022/06/08 09:43:55;;;;;;;6.95;5.18;;;;;;;27.46;43.22;99593.53;5073743;28;20055;-30
2022/06/08 09:52:41;;;;;;;6.78;5.30;;;;;;;28.27;42.53;99587.31;5087100;28;20086;-30
2022/06/08 09:55:16;;;;;;;7.95;5.57;;;;;;;28.28;41.53;99581.50;5068753;28;20118;-33
2022/06/08 09:58:12;;;;;;;7.13;6.05;;;;;;;28.15;41.53;99577.19;5068951;28;20071;-33
2022/06/08 10:00:49;;;;;;;6.50;5.53;;;;;;;27.28;42.92;99568.34;5068726;28;20063;-34
2022/06/08 10:03:44;;;;;;;7.43;5.85;;;;;;;26.68;45.73;99557.00;5069105;28;20031;-30
2022/06/08 10:06:32;;;;;;;6.47;5.22;;;;;;;27.02;44.46;99566.72;5068945;28;20090;-32
2022/06/08 10:08:57;;;;;;;;;;;;;;;27.93;43.98;99568.38;5087543;28;20032;-31
2022/06/08 10:11:38;;;;;;;6.47;4.80;;;;;;;28.25;40.87;99563.00;5086745;28;19969;-30
2022/06/08 10:14:09;;;;;;;6.45;4.85;;;;;;;28.23;40.49;99562.53;5087352;28;20028;-30
2022/06/08 10:16:40;;;;;;;13.77;5.63;;;;;;;28.28;41.95;99554.06;5086807;28;20060;-35
2022/06/08 10:19:14;;;;;;;6.28;5.00;;;;;;;28.33;39.52;99545.56;5068880;28;20779;-30
2022/06/08 10:21:43;;;;;;;7.00;4.90;;;;;;;28.69;38.71;99541.06;5052103;28;20501;-33
2022/06/08 10:24:26;;;;;;;7.60;5.68;;;;;;;28.90;39.58;99540.00;5089365;28;20043;-34
2022/06/08 10:26:57;;;;;;;6.88;5.22;;;;;;;28.84;40.37;99540.25;5073021;28;20916;-30
2022/06/08 10:29:40;;;;;;;6.68;4.85;;;;;;;28.74;40.28;99542.72;5090968;28;20115;-34
2022/06/08 10:32:29;;;;;;;7.50;5.05;;;;;;;29.05;38.51;99533.69;5090767;28;20625;-30
2022/06/08 10:34:55;;;;;;;5.53;4.70;;;;;;;28.39;39.26;99526.94;5072719;28;20483;-33
2022/06/08 10:37:35;;;;;;;5.70;5.00;;;;;;;28.79;39.36;99515.84;5072615;28;20028;-31
2022/06/08 10:40:09;;;;;;;7.85;5.03;;;;;;;29.03;39.71;99516.78;5090965;28;20032;-30
2022/06/08 10:42:40;;;;;;;6.50;5.57;;;;;;;29.38;38.71;99510.53;5090401;28;20032;-32
2022/06/08 10:45:24;;;;;;;5.50;4.80;;;;;;;28.41;40.31;99514.44;5072304;28;20024;-30
2022/06/08 10:48:03;;;;;;;6.45;4.93;;;;;;;28.15;39.56;99494.97;5090756;28;20031;-32
2022/06/08 10:50:42;;;;;;;6.65;5.25;;;;;;;28.18;40.33;99511.50;5071886;28;20092;-30
2022/06/08 10:56:36;;;;;;;6.03;4.93;;;;;;;29.01;39.66;99505.34;5090921;28;20086;-34
2022/06/08 10:59:08;;;;;;;6.38;4.88;;;;;;;29.46;38.62;99501.28;5068227;28;20044;-29
2022/06/08 11:01:55;;;;;;;6.30;5.30;;;;;;;29.68;39.53;99497.03;5090635;28;20110;-31
2022/06/08 11:04:27;;;;;;;;;;;;;;;28.75;38.53;99505.91;5091186;28;20419;-30
2022/06/08 11:07:14;;;;;;;7.65;5.60;;;;;;;28.35;40.08;99499.41;5090380;28;19916;-30
2022/06/08 11:09:39;;;;;;;6.32;4.90;;;;;;;28.69;39.25;99499.09;5071758;28;20024;-30
2022/06/08 11:12:11;;;;;;;7.03;5.18;;;;;;;29.78;37.36;99492.94;5071776;28;20153;-32
2022/06/08 11:14:42;;;;;;;6.72;5.00;;;;;;;29.80;36.95;99488.66;5089907;28;20032;-29
2022/06/08 11:17:27;;;;;;;7.80;5.05;;;;;;;29.89;36.36;99491.19;5089977;28;20107;-35
2022/06/08 11:20:03;;;;;;;8.55;5.18;;;;;;;29.44;35.28;99468.69;5089631;28;20077;-34
2022/06/08 11:22:43;;;;;;;6.57;5.10;;;;;;;30.02;35.42;99480.84;5071589;28;20032;-31
2022/06/08 11:25:19;;;;;;;6.90;5.13;;;;;;;29.28;37.43;99456.97;5089983;28;20413;-34
2022/06/08 11:27:45;;;;;;;6.55;5.10;;;;;;;29.75;36.97;99463.44;5071572;28;20035;-30
2022/06/08 11:30:23;;;;;;;6.53;5.50;;;;;;;29.84;36.28;99475.00;5089698;28;20648;-31
2022/06/08 11:32:51;;;;;;;6.85;5.03;;;;;;;29.93;35.10;99474.78;5089486;28;20024;-32
2022/06/08 11:36:12;;;;;;;6.32;5.20;;;;;;;29.81;35.65;99464.72;5088795;28;20024;-32
2022/06/08 11:38:53;;;;;;;8.15;5.13;;;;;;;30.76;34.40;99460.50;5026235;28;20029;-30
2022/06/08 11:41:21;;;;;;;6.78;4.97;;;;;;;31.29;32.82;99460.50;5083052;28;20111;-27
2022/06/08 11:43:49;;;;;;;5.75;5.00;;;;;;;30.88;34.03;99451.28;5070756;28;20525;-28
2022/06/08 11:46:25;;;;;;;5.25;4.72;;;;;;;30.69;33.18;99433.69;5071060;28;20089;-28
2022/06/08 11:48:52;;;;;;;5.95;5.03;;;;;;;30.56;34.73;99444.06;5070831;28;20028;-34
2022/06/08 11:51:40;;;;;;;7.20;4.97;;;;;;;31.01;33.72;99444.38;5089449;28;20055;-30
2022/06/08 11:54:27;;;;;;;5.10;4.60;;;;;;;31.20;32.64;99446.19;5089362;28;20032;-32
2022/06/08 11:57:12;;;;;;;5.75;4.68;;;;;;;31.55;32.41;99437.63;5071020;28;20065;-34
2022/06/08 11:59:41;;;;;;;6.13;4.63;;;;;;;31.40;32.72;99444.09;5070662;28;20034;-30
2022/06/08 12:02:23;;;;;;;5.72;4.88;;;;;;;31.20;31.99;99427.75;5088957;28;20040;-35
2022/06/08 12:04:52;;;;;;;7.30;5.55;;;;;;;31.81;31.83;99419.41;5070862;28;20521;-31
2022/06/08 12:07:50;;;;;;;5.38;4.85;;;;;;;32.17;33.16;99430.81;5088895;28;20483;-32
2022/06/08 12:10:23;;;;;;;6.13;4.68;;;;;;;31.85;31.30;99439.53;5047606;28;20039;-30